METAR Data
IDs: Format: Raw Decoded Include TAF

Data at: 1533 UTC 21 May 2019

KDEH 211515Z AUTO 11016G23KT 10SM CLR 10/03 A3005 RMK AO2
KDEH 211455Z AUTO 10016G21KT 10SM CLR 10/03 A3004 RMK AO2
KDEH 211435Z AUTO 10014G21KT 10SM FEW070 10/03 A3005 RMK AO2
KDEH 211415Z AUTO 09014G21KT 10SM BKN070 10/03 A3004 RMK AO2
KDEH 211355Z AUTO 10010G18KT 060V120 10SM OVC070 09/04 A3006 RMK AO2
KDEH 211335Z AUTO 11013KT 10SM OVC070 09/04 A3006 RMK AO2
KDEH 211315Z AUTO 10011KT 10SM BKN065 BKN075 09/05 A3006 RMK AO2
KDEH 211255Z AUTO 11009G16KT 080V140 10SM BKN070 09/05 A3005 RMK AO2
KDEH 211235Z AUTO 11011G18KT 10SM BKN070 BKN085 08/05 A3006 RMK AO2
KDEH 211215Z AUTO 11012G18KT 080V140 10SM BKN070 BKN085 08/06 A3005 RMK AO2
KDEH 211155Z AUTO 10011G18KT 10SM BKN065 BKN080 09/06 A3007 RMK AO2
KDEH 211135Z AUTO VRB06G13KT 10SM CLR 09/06 A3006 RMK AO2
KDEH 211115Z AUTO 09010KT 10SM CLR 09/06 A3004 RMK AO2
KDEH 211055Z AUTO 09009KT 10SM CLR 09/05 A3004 RMK AO2
KDEH 211035Z AUTO 09009KT 10SM CLR 09/06 A3005 RMK AO2
KDEH 211015Z AUTO 08006KT 10SM CLR 08/06 A3006 RMK AO2
KDEH 210955Z AUTO 08007KT 10SM CLR 08/05 A3005 RMK AO2
KDEH 210935Z AUTO 09006KT 10SM CLR 09/05 A3007 RMK AO2
KDEH 210915Z AUTO 08004KT 10SM CLR 09/05 A3007 RMK AO2
KDEH 210855Z AUTO 08007KT 10SM CLR 09/05 A3005 RMK AO2
KDEH 210835Z AUTO 08006KT 10SM CLR 09/05 A3005 RMK AO2
KDEH 210815Z AUTO 09006KT 10SM CLR 09/05 A3005 RMK AO2
KDEH 210755Z AUTO 10006KT 10SM FEW120 10/05 A3005 RMK AO2
KDEH 210735Z AUTO VRB06KT 10SM FEW120 10/05 A3005 RMK AO2
KDEH 210715Z AUTO 10008KT 10SM CLR 09/05 A3007 RMK AO2
KDEH 210655Z AUTO 11005KT 10SM CLR 09/05 A3008 RMK AO2
KDEH 210635Z AUTO 12004KT 10SM CLR 09/05 A3009 RMK AO2
KDEH 210615Z AUTO 11003KT 10SM CLR 09/05 A3010 RMK AO2
KDEH 210555Z AUTO 12004KT 10SM CLR 10/05 A3008 RMK AO2
KDEH 210535Z AUTO 11005KT 10SM CLR 10/05 A3008 RMK AO2
KDEH 210515Z AUTO 13004KT 10SM CLR 10/05 A3010 RMK AO2
KDEH 210455Z AUTO 13004KT 10SM CLR 10/05 A3010 RMK AO2
KDEH 210435Z AUTO 13004KT 10SM CLR 10/05 A3010 RMK AO2
KDEH 210415Z AUTO 14004KT 10SM CLR 10/05 A3010 RMK AO2
KDEH 210355Z AUTO 15004KT 10SM CLR 10/06 A3011 RMK AO2
KDEH 210335Z AUTO 14004KT 10SM CLR 11/06 A3010 RMK AO2
KDEH 210315Z AUTO 14004KT 10SM CLR 10/05 A3011 RMK AO2
KDEH 210255Z AUTO 13003KT 10SM CLR 11/05 A3011 RMK AO2
KDEH 210235Z AUTO 12003KT 10SM CLR 11/05 A3011 RMK AO2
KDEH 210215Z AUTO 11004KT 10SM CLR 11/04 A3010 RMK AO2
KDEH 210155Z AUTO 00000KT 10SM CLR 11/05 A3009 RMK AO2
KDEH 210135Z AUTO 09004KT 10SM CLR 12/05 A3008 RMK AO2
KDEH 210115Z AUTO 08004KT 10SM CLR 12/04 A3009 RMK AO2
KDEH 210055Z AUTO 07003KT 10SM CLR 12/04 A3010 RMK AO2
KDEH 210035Z AUTO 08005KT 10SM CLR 13/03 A3010 RMK AO2
KDEH 210015Z AUTO 08005KT 10SM CLR 13/04 A3010 RMK AO2
KDEH 202355Z AUTO 08004KT 10SM CLR 13/03 A3010 RMK AO2
KDEH 202335Z AUTO 08004KT 10SM CLR 13/03 A3011 RMK AO2
KDEH 202315Z AUTO 07007KT 10SM CLR 13/03 A3011 RMK AO2
KDEH 202255Z AUTO 08008KT 10SM CLR 14/03 A3012 RMK AO2
KDEH 202235Z AUTO 11005KT 10SM SCT050 14/03 A3013 RMK AO2
KDEH 202215Z AUTO 06004KT 10SM SCT050 14/02 A3014 RMK AO2
KDEH 202155Z AUTO VRB05KT 10SM FEW049 14/02 A3013 RMK AO2
KDEH 202135Z AUTO VRB05KT 10SM 14/02 A3012 RMK AO2
KDEH 202115Z AUTO 08008KT 10SM 14/02 A3012 RMK AO2
KDEH 202055Z AUTO 06007KT 020V080 10SM 14/02 A3011 RMK AO2
KDEH 202035Z AUTO VRB06KT 10SM 14/03 A3011 RMK AO2
KDEH 202015Z AUTO VRB06KT 14/03 A3011 RMK AO2
KDEH 201955Z AUTO 07007G13KT 10SM 13/03 A3011 RMK AO2
KDEH 201935Z AUTO 36011KT 10SM 13/03 A3011 RMK AO2
KDEH 201915Z AUTO 01010KT 10SM 13/02 A3012 RMK AO2
KDEH 201855Z AUTO 06008KT 10SM 13/03 A3011 RMK AO2
KDEH 201835Z AUTO VRB06G13KT 10SM 12/03 A3011 RMK AO2
KDEH 201815Z AUTO 07008G19KT 010V110 10SM 12/03 A3013 RMK AO2
KDEH 201755Z AUTO 05007G15KT 010V080 10SM 12/03 A3013 RMK AO2
KDEH 201735Z AUTO 35007G17KT 10SM 12/03 A3013 RMK AO2
KDEH 201715Z AUTO 02007KT 350V060 10SM 11/03 A3013 RMK AO2
KDEH 201655Z AUTO 01009KT 330V030 10SM FEW034 11/04 A3013 RMK AO2
KDEH 201635Z AUTO 35009KT 320V020 10SM 10/03 A3013 RMK AO2
KDEH 201615Z AUTO 35010KT 10SM 10/03 A3013 RMK AO2
KDEH 201555Z AUTO 32008G18KT 10SM 10/03 A3014 RMK AO2
KDEH 201535Z AUTO 01008G16KT 10SM 10/03 A3013 RMK AO2
KDEH 201515Z AUTO 01010KT 10SM FEW029 FEW035 09/02 A3010 RMK AO2
KDEH 201455Z AUTO 35010G16KT 330V030 10SM CLR 09/02 A3011 RMK AO2
KDEH 201435Z AUTO 36011G18KT 10SM CLR 08/02 A3010 RMK AO2
KDEH 201415Z AUTO 35012G17KT 10SM CLR 08/02 A3009 RMK AO2
KDEH 201355Z AUTO 36011G17KT 10SM CLR 07/02 A3009 RMK AO2
KDEH 201335Z AUTO 35010KT 10SM FEW040 07/03 A3010 RMK AO2
KDEH 201315Z AUTO 34012G18KT 10SM FEW016 SCT040 06/03 A3010 RMK AO2
KDEH 201255Z AUTO 34012G17KT 10SM FEW014 BKN038 05/03 A3009 RMK AO2
KDEH 201235Z AUTO 34009G16KT 10SM 05/03 A3009 RMK AO2
KDEH 201215Z AUTO 34012KT 10SM 05/03 A3008 RMK AO2
KDEH 201155Z AUTO 34009G15KT 10SM 05/03 A3008 RMK AO2
KDEH 201135Z AUTO 35009G16KT 10SM OVC015 05/02 A3008 RMK AO2
KDEH 201115Z AUTO 35009KT 10SM OVC014 04/02 A3006 RMK AO2
KDEH 201055Z AUTO 34010KT 10SM OVC013 04/02 A3005 RMK AO2
KDEH 201035Z AUTO 34010KT 10SM OVC013 04/02 A3004 RMK AO2
KDEH 201015Z AUTO 36009G15KT 10SM OVC012 04/02 A3002 RMK AO2
KDEH 200955Z AUTO 01007G13KT 10SM OVC011 04/02 A3001 RMK AO2
KDEH 200935Z AUTO 35012G18KT 10SM OVC011 04/02 A3000 RMK AO2
KDEH 200915Z AUTO 35012KT 10SM OVC011 04/03 A2999 RMK AO2
KDEH 200855Z AUTO 34009KT 10SM OVC011 04/02 A3000 RMK AO2
KDEH 200835Z AUTO 34011G17KT 10SM OVC012 04/02 A2999 RMK AO2
KDEH 200815Z AUTO 34011KT 10SM OVC012 04/03 A2998 RMK AO2
KDEH 200755Z AUTO 35012KT 10SM SCT008 OVC014 04/02 A2997 RMK AO2
KDEH 200735Z AUTO 33010KT 8SM BKN008 OVC012 04/03 A2997 RMK AO2
KDEH 200715Z AUTO 33010KT 9SM OVC014 04/03 A2997 RMK AO2
KDEH 200655Z AUTO 34009G14KT 10SM OVC015 04/02 A2997 RMK AO2
KDEH 200635Z AUTO 33012KT 10SM OVC014 04/03 A2996 RMK AO2
KDEH 200615Z AUTO 33010G15KT 8SM BKN013 OVC019 04/03 A2995 RMK AO2
KDEH 200555Z AUTO 34011G17KT 9SM BKN010 OVC016 04/03 A2994 RMK AO2
KDEH 200535Z AUTO 34011G16KT 10SM OVC011 04/03 A2994 RMK AO2
KDEH 200515Z AUTO 34009G15KT 9SM SCT008 BKN011 OVC017 04/03 A2993 RMK AO2
KDEH 200455Z AUTO 34011G17KT 10SM BKN010 OVC016 04/03 A2992 RMK AO2
KDEH 200435Z AUTO 32014KT 10SM BKN010 OVC014 04/03 A2992 RMK AO2
KDEH 200415Z AUTO 33011G17KT 10SM BKN010 BKN015 OVC022 04/03 A2991 RMK AO2
KDEH 200355Z AUTO 33017KT 9SM OVC013 05/03 A2989 RMK AO2
KDEH 200335Z AUTO 33012G19KT 280V340 10SM OVC012 05/03 A2989 RMK AO2